Alto, NM

5:36 PM MST on February 27, 2015 (GMT -0700)
Eagle Creek Canyon | Change Station
CLOSE
Current Station
Personal Weather Station
Location: Ruidoso, NM
Elevation: 7200 ft
Nearby Weather Stations

Elev 7200 ft 33.39 °N, 105.65 °W | Updated 20 seconds ago

Overcast
Overcast
19.2 °F
Feels Like 19 °F
N
1.0
Wind Variable Wind from NE
Gusts 3.0 mph

Today
High -- | Low -- °F
--% Chance of Precip.
Yesterday
High -- | Low -- °F
Precip. -- in
6:33 AM 5:57 PM
Waxing Gibbous, 73% visible
Pressure 29.92 in
Visibility 0.2 miles
Clouds Overcast 100 ft
Windchill 19 °F
Dew Point 14 °F
Humidity 81%
Rainfall 0.07 in
Snow Depth Not available.
UV 0 out of 12
Pollen 2.50 out of 12
Air Quality Not available.
Flu Activity Not available.
METAR KSRR 280015Z AUTO 11007KT M1/4SM FZFG OVC001 M09/M10 A2992 RMK AO2

More Conditions Fewer Conditions

Pressure 29.92 in
Visibility 0.2 miles
Clouds Overcast 100 ft
Windchill 19 °F
Dew Point 14 °F
Humidity 81%
Rainfall 0.07 in
Snow Depth Not available.
UV 0 out of 12
Pollen 2.50 out of 12
Air Quality Not available.
Flu Activity Not available.
METAR KSRR 280015Z AUTO 11007KT M1/4SM FZFG OVC001 M09/M10 A2992 RMK AO2

More Conditions Fewer Conditions

Nowcast | as of 2:54 PM MST on February 27, 2015

Periods of light to moderate snow will continue to fall over central New Mexico this afternoon. Snow accumulations will be spotty with a few higher elevation locations picking up 1 to 2 new inches of snow. Local areas of fog will reduce visibilities further...down below 1 mile at time. Expect difficult winter driving conditions. For the latest New Mexico Road conditions call 5 1 1 or visit N M roads dot com.

×

10-Day Weather Forecast

Almanac

Astronomy

Feb. 27, 2015 Rise Set
Actual Time
Civil Twilight
Nautical Twilight
Astronomical Twilight
Moon
Length of Visible Light
Length of Day
Tomorrow will be .
, % of the Moon is Illuminated

Today's Extremes

State Highs State Lows

Community

WunderPhotos

Upload Photos

1,800,904 photos uploaded!

WunderBlogs® & News

Nearby

Air Quality

  Air Quality AQ Index Pollutant
Not available.

Snow Depth

Station Depth Elevation

Earthquake Activity

City Distance Mag. Time & Date
Minimum magnitude displayed is 2.5.

Coastal Water Temperatures

Place Temperature

Nearby Weather Stations